Time;durP1;ratioP1;P1;durP2;ratioP2;P2;SDS_P1;SDS_P2;PMS_P1;PMS_P2;Temp;Humidity;BMP_temperature;BMP_pressure;BME280_temperature;BME280_humidity;BME280_pressure;Samples;Min_cycle;Max_cycle;Signal;HPM_P1;HPM_P2
2021/07/16 00:00:20;;;;;;;12.55;5.10;;;;;;;16.50;85.73;101937.53;5053994;28;20043;-52
2021/07/16 00:02:50;;;;;;;11.63;5.00;;;;;;;16.50;85.96;101944.94;5053120;28;20128;-51
2021/07/16 00:05:18;;;;;;;13.55;4.82;;;;;;;16.45;85.88;101947.69;5073136;28;20036;-53
2021/07/16 00:07:45;;;;;;;17.80;4.90;;;;;;;16.46;86.33;101950.19;5074386;28;20051;-53
2021/07/16 00:10:19;;;;;;;15.77;5.22;;;;;;;16.48;86.27;101953.47;5074525;28;20062;-50
2021/07/16 00:12:47;;;;;;;14.73;5.18;;;;;;;16.49;85.60;101952.38;5073976;28;20111;-53
2021/07/16 00:15:17;;;;;;;12.48;5.40;;;;;;;16.46;85.25;101960.38;5060075;28;20056;-52
2021/07/16 00:17:45;;;;;;;13.20;5.20;;;;;;;16.42;85.87;101946.34;5074178;28;20052;-51
2021/07/16 00:20:13;;;;;;;19.63;6.35;;;;;;;16.43;86.25;101945.25;5074228;28;20036;-52
2021/07/16 00:22:41;;;;;;;15.88;5.97;;;;;;;16.44;86.32;101941.38;5074336;28;20048;-55
2021/07/16 00:25:10;;;;;;;16.45;6.25;;;;;;;16.46;86.37;101944.69;5074006;28;20036;-51
2021/07/16 00:27:37;;;;;;;12.15;5.25;;;;;;;16.44;86.45;101940.56;5073678;28;20041;-54
2021/07/16 00:30:07;;;;;;;15.02;5.38;;;;;;;16.44;86.18;101946.88;5052993;28;20045;-55
2021/07/16 00:32:35;;;;;;;14.93;5.95;;;;;;;16.40;86.35;101946.63;5073879;28;20052;-54
2021/07/16 00:35:05;;;;;;;14.38;6.18;;;;;;;16.42;86.34;101949.09;5073548;28;20355;-55
2021/07/16 00:37:32;;;;;;;13.73;5.53;;;;;;;16.40;86.20;101945.78;5066312;28;20486;-54
2021/07/16 00:40:00;;;;;;;11.90;5.72;;;;;;;16.39;86.17;101949.66;5073927;28;20037;-56
2021/07/16 00:42:28;;;;;;;13.10;5.45;;;;;;;16.38;86.42;101953.53;5073043;28;20052;-54
2021/07/16 00:45:08;;;;;;;15.13;5.38;;;;;;;16.44;86.85;101955.13;5073679;28;20549;-55
2021/07/16 00:47:36;;;;;;;15.55;4.97;;;;;;;16.47;86.38;101957.31;5066235;28;20044;-57
2021/07/16 00:50:08;;;;;;;16.67;5.75;;;;;;;16.50;86.01;101959.53;5072725;28;20037;-54
2021/07/16 00:52:36;;;;;;;15.68;5.32;;;;;;;16.48;85.55;101953.47;5073477;28;20507;-56
2021/07/16 00:55:04;;;;;;;15.27;5.60;;;;;;;16.44;86.17;101963.38;5052642;28;20037;-57
2021/07/16 00:57:32;;;;;;;18.60;5.95;;;;;;;16.44;85.91;101963.38;5065139;28;20040;-55
2021/07/16 01:00:00;;;;;;;13.10;5.47;;;;;;;16.42;85.91;101968.34;5052313;28;20048;-57
2021/07/16 01:02:28;;;;;;;17.38;5.72;;;;;;;16.35;86.08;101956.81;5073290;28;20503;-55
2021/07/16 01:04:56;;;;;;;14.57;6.18;;;;;;;16.33;86.55;101961.75;5052254;28;20040;-56
2021/07/16 01:07:24;;;;;;;12.40;5.63;;;;;;;16.34;86.69;101952.44;5072753;28;20055;-55
2021/07/16 01:09:51;;;;;;;16.20;5.82;;;;;;;16.37;86.40;101963.69;5072651;28;20059;-56
2021/07/16 01:12:19;;;;;;;17.73;6.60;;;;;;;16.41;86.52;101958.47;5072786;28;20052;-57
2021/07/16 01:14:48;;;;;;;15.63;6.05;;;;;;;16.43;86.11;101956.25;5051645;28;20079;-56
2021/07/16 01:17:15;;;;;;;19.42;5.55;;;;;;;16.43;86.48;101956.25;5053403;28;20040;-55
2021/07/16 01:19:55;;;;;;;15.45;5.72;;;;;;;16.41;86.45;101963.97;5073127;28;20391;-54
2021/07/16 01:22:26;;;;;;;14.45;6.07;;;;;;;16.39;86.61;101960.66;5054602;28;20049;-55
2021/07/16 01:24:54;;;;;;;13.63;6.22;;;;;;;16.41;86.59;101963.97;5072583;28;20041;-54
2021/07/16 01:27:22;;;;;;;16.52;6.00;;;;;;;16.45;86.77;101969.72;5072739;28;20043;-57
2021/07/16 01:29:50;;;;;;;15.60;6.20;;;;;;;16.42;86.36;101964.78;5072739;28;20499;-53
2021/07/16 01:32:18;;;;;;;18.40;6.35;;;;;;;16.35;86.14;101957.63;5037034;28;20037;-51
2021/07/16 01:34:47;;;;;;;12.38;5.40;;;;;;;16.34;86.12;101963.44;5072859;28;20055;-53
2021/07/16 01:37:16;;;;;;;15.82;6.25;;;;;;;16.34;86.15;101964.25;5072761;28;20040;-55
2021/07/16 01:39:43;;;;;;;15.25;6.20;;;;;;;16.36;86.55;101962.03;5072384;28;20453;-55
2021/07/16 01:42:11;;;;;;;14.07;5.13;;;;;;;16.40;86.60;101978.78;5072085;28;20044;-52
2021/07/16 01:44:41;;;;;;;17.13;5.85;;;;;;;16.31;85.86;101973.06;5072712;28;20044;-56
2021/07/16 01:47:10;;;;;;;13.88;6.07;;;;;;;16.29;86.13;101964.25;5070896;28;20503;-54
2021/07/16 01:49:38;;;;;;;14.35;5.70;;;;;;;16.33;86.39;101962.59;5072549;28;20452;-56
2021/07/16 01:52:05;;;;;;;15.85;5.93;;;;;;;16.36;86.43;101953.78;5072573;28;20118;-53
2021/07/16 01:54:33;;;;;;;15.85;5.90;;;;;;;16.39;86.65;101961.47;5072012;28;20059;-56
2021/07/16 01:57:01;;;;;;;16.45;6.05;;;;;;;16.42;86.29;101959.28;5072239;28;20055;-52
2021/07/16 01:59:32;;;;;;;15.05;5.60;;;;;;;16.42;86.82;101964.78;5072514;28;20040;-53
2021/07/16 02:01:59;;;;;;;14.48;5.68;;;;;;;16.42;86.66;101968.34;5051190;28;20060;-54
2021/07/16 02:04:28;;;;;;;16.98;6.25;;;;;;;16.43;86.85;101972.75;5071995;28;20067;-53
2021/07/16 02:06:57;;;;;;;16.80;6.07;;;;;;;16.44;87.18;101971.66;5072425;28;20487;-55
2021/07/16 02:09:25;;;;;;;16.83;5.50;;;;;;;16.44;87.09;101974.41;5071457;28;20067;-57
2021/07/16 02:11:57;;;;;;;13.20;5.40;;;;;;;16.47;87.46;101967.50;5072075;28;20055;-57
2021/07/16 02:14:27;;;;;;;17.70;5.90;;;;;;;16.46;87.38;101977.69;5072119;28;20392;-56
2021/07/16 02:16:56;;;;;;;19.05;5.90;;;;;;;16.49;87.43;101971.63;5072114;28;20040;-53
2021/07/16 02:19:23;;;;;;;13.85;5.95;;;;;;;16.50;87.26;101970.53;5072292;28;20052;-56
2021/07/16 02:21:51;;;;;;;14.02;5.65;;;;;;;16.51;87.14;101968.59;5071911;28;20071;-57
2021/07/16 02:24:19;;;;;;;17.63;5.90;;;;;;;16.50;87.04;101975.19;5071904;28;20036;-54
2021/07/16 02:26:46;;;;;;;14.80;6.03;;;;;;;16.47;87.02;101968.31;5058243;28;20380;-56
2021/07/16 02:29:14;;;;;;;16.55;6.30;;;;;;;16.47;87.33;101967.50;5051969;28;20045;-56
2021/07/16 02:31:41;;;;;;;19.40;6.40;;;;;;;16.46;87.37;101965.88;5071714;28;20040;-56
2021/07/16 02:34:09;;;;;;;16.02;6.10;;;;;;;16.46;87.60;101966.69;5072269;28;20098;-56
2021/07/16 02:36:36;;;;;;;18.10;6.43;;;;;;;16.47;87.58;101967.50;5071977;28;20552;-54
2021/07/16 02:39:04;;;;;;;13.32;5.40;;;;;;;16.45;87.48;101970.56;5071744;28;20059;-53
2021/07/16 02:41:32;;;;;;;11.50;5.55;;;;;;;16.44;87.74;101968.91;5050633;28;20052;-56
2021/07/16 02:43:59;;;;;;;15.57;5.75;;;;;;;16.45;87.58;101976.06;5068076;28;20044;-53
2021/07/16 02:46:27;;;;;;;15.05;6.38;;;;;;;16.46;87.92;101977.69;5071455;28;20060;-55
2021/07/16 02:48:54;;;;;;;14.23;6.55;;;;;;;16.45;87.49;101975.22;5071747;28;20064;-54
2021/07/16 02:51:22;;;;;;;14.65;6.38;;;;;;;16.41;87.65;101980.47;5071476;28;20419;-53
2021/07/16 02:53:49;;;;;;;17.83;6.78;;;;;;;16.36;87.94;101980.47;5071550;28;20037;-53
2021/07/16 02:56:17;;;;;;;15.15;5.95;;;;;;;16.35;87.99;101992.56;5071712;28;20054;-54
2021/07/16 02:58:44;;;;;;;16.13;6.50;;;;;;;16.34;87.29;101985.44;5071673;28;20506;-53
2021/07/16 03:01:12;;;;;;;17.55;6.45;;;;;;;16.30;87.80;101987.06;5051472;28;20049;-53
2021/07/16 03:03:40;;;;;;;17.27;6.25;;;;;;;16.29;87.53;101993.69;5071772;28;20036;-53
2021/07/16 03:06:08;;;;;;;13.73;5.95;;;;;;;16.28;87.17;101992.84;5071244;28;20047;-54
2021/07/16 03:08:35;;;;;;;14.38;6.40;;;;;;;16.28;87.07;101989.28;5071534;28;20048;-53
2021/07/16 03:11:03;;;;;;;15.93;6.30;;;;;;;16.25;86.81;101984.34;5071684;28;20064;-53
2021/07/16 03:13:30;;;;;;;17.92;6.70;;;;;;;16.22;86.93;101988.47;5073943;28;20054;-53
2021/07/16 03:15:58;;;;;;;16.55;6.38;;;;;;;16.21;87.02;101986.00;5075049;28;20044;-54
2021/07/16 03:18:26;;;;;;;14.30;6.47;;;;;;;16.17;87.04;101980.25;5075592;28;20040;-56
2021/07/16 03:20:53;;;;;;;17.33;6.50;;;;;;;16.17;86.61;101985.75;5074848;28;20055;-54
2021/07/16 03:23:22;;;;;;;18.95;6.25;;;;;;;16.17;87.05;101975.56;5074708;28;20049;-54
2021/07/16 03:25:49;;;;;;;14.13;5.97;;;;;;;16.16;86.81;101979.41;5075132;28;20053;-56
2021/07/16 03:28:18;;;;;;;19.25;6.03;;;;;;;16.16;86.75;101973.91;5075335;28;20041;-53
2021/07/16 03:30:45;;;;;;;17.90;6.32;;;;;;;16.18;86.67;101982.69;5075243;28;20051;-56
2021/07/16 03:33:13;;;;;;;14.15;6.10;;;;;;;16.22;86.79;101984.91;5075208;28;20395;-56
2021/07/16 03:35:41;;;;;;;13.25;6.05;;;;;;;16.21;86.55;101975.00;5074503;28;20510;-54
2021/07/16 03:38:09;;;;;;;16.38;5.80;;;;;;;16.18;86.69;101981.88;5074751;28;20380;-56
2021/07/16 03:40:37;;;;;;;18.50;7.00;;;;;;;16.18;86.85;101982.69;5075208;28;20052;-56
2021/07/16 03:43:05;;;;;;;16.75;6.18;;;;;;;16.17;86.59;101980.25;5074773;28;20036;-57
2021/07/16 03:45:35;;;;;;;17.58;6.57;;;;;;;16.12;86.36;101983.00;5074784;28;20048;-50
2021/07/16 03:48:02;;;;;;;14.80;6.68;;;;;;;16.12;86.41;101992.06;5053348;28;20053;-55
2021/07/16 03:50:30;;;;;;;15.43;5.82;;;;;;;16.12;86.26;101989.31;5066130;28;20040;-54
2021/07/16 03:52:57;;;;;;;18.67;6.30;;;;;;;16.11;86.27;101993.16;5074786;28;20082;-53
2021/07/16 03:55:25;;;;;;;17.77;6.10;;;;;;;16.12;86.56;101997.56;5074844;28;20051;-55
2021/07/16 03:57:53;;;;;;;21.75;6.25;;;;;;;16.14;86.31;101998.13;5074467;28;20052;-50
2021/07/16 04:00:26;;;;;;;18.38;6.60;;;;;;;16.14;85.40;102003.63;5074519;28;20045;-52
2021/07/16 04:02:54;;;;;;;21.08;6.63;;;;;;;16.07;84.35;102005.81;5074349;28;20059;-50
2021/07/16 04:05:23;;;;;;;24.75;6.38;;;;;;;16.01;83.64;101998.66;5074142;28;20139;-51
2021/07/16 04:07:53;;;;;;;18.50;5.57;;;;;;;15.92;83.05;102008.56;5074673;28;20040;-56
2021/07/16 04:10:23;;;;;;;26.27;7.07;;;;;;;15.87;83.57;102016.81;5074076;28;20063;-52
2021/07/16 04:12:56;;;;;;;23.65;6.55;;;;;;;15.86;83.01;102017.91;5074497;28;20063;-54
2021/07/16 04:15:26;;;;;;;24.60;6.45;;;;;;;15.87;83.97;102020.38;5074009;28;20037;-52
2021/07/16 04:17:55;;;;;;;19.92;6.55;;;;;;;15.96;83.76;102026.16;5074555;28;20050;-56
2021/07/16 04:20:24;;;;;;;18.70;5.28;;;;;;;15.95;82.83;102019.03;5074107;28;20041;-54
2021/07/16 04:22:52;;;;;;;20.83;5.65;;;;;;;15.96;82.77;102020.66;5074166;28;20391;-56
2021/07/16 04:25:20;;;;;;;20.75;6.03;;;;;;;15.95;83.07;102021.78;5073311;28;20036;-53
2021/07/16 04:27:49;;;;;;;23.33;6.10;;;;;;;16.00;82.73;102021.75;5074033;28;20045;-53
2021/07/16 04:30:19;;;;;;;22.33;6.15;;;;;;;16.00;82.73;102016.28;5074279;28;20037;-50
2021/07/16 04:32:48;;;;;;;19.65;5.97;;;;;;;16.03;82.64;102025.88;5073960;28;20407;-54
2021/07/16 04:35:16;;;;;;;25.75;6.43;;;;;;;16.05;82.91;102019.00;5073734;28;20041;-54
2021/07/16 04:37:44;;;;;;;22.58;6.45;;;;;;;16.09;82.54;102022.88;5074033;28;20477;-53
2021/07/16 04:40:19;;;;;;;23.92;6.57;;;;;;;16.08;81.85;102026.69;5073826;28;20041;-56
2021/07/16 04:42:51;;;;;;;18.85;5.85;;;;;;;16.07;82.26;102025.06;5073308;28;20491;-58
2021/07/16 04:45:20;;;;;;;19.25;5.88;;;;;;;16.10;82.80;102027.25;5073793;28;20380;-56
2021/07/16 04:47:48;;;;;;;20.40;5.85;;;;;;;16.14;82.93;102031.13;5073721;28;20399;-56
2021/07/16 04:50:17;;;;;;;18.95;5.45;;;;;;;16.18;82.66;102034.13;5073428;28;20033;-57
2021/07/16 04:52:47;;;;;;;20.65;5.75;;;;;;;16.22;82.40;102031.66;5073530;28;20050;-56
2021/07/16 04:55:15;;;;;;;20.42;6.05;;;;;;;16.20;81.45;102040.16;5073395;28;20037;-56
2021/07/16 04:57:43;;;;;;;17.33;5.53;;;;;;;16.17;81.55;102041.56;5073614;28;20139;-54
2021/07/16 05:00:12;;;;;;;20.85;5.85;;;;;;;16.18;81.93;102042.38;5073320;28;20048;-51
2021/07/16 05:02:39;;;;;;;22.73;5.68;;;;;;;16.19;82.10;102039.34;5046288;28;20053;-54
2021/07/16 05:05:08;;;;;;;25.77;6.13;;;;;;;16.23;81.91;102049.78;5070120;28;20115;-53
2021/07/16 05:07:36;;;;;;;19.50;5.75;;;;;;;16.16;81.04;102045.41;5073279;28;20049;-56
2021/07/16 05:10:06;;;;;;;21.42;5.82;;;;;;;16.13;81.60;102056.94;5072609;28;20506;-56
2021/07/16 05:12:34;;;;;;;21.00;6.63;;;;;;;16.09;81.52;102049.50;5065257;28;20051;-53
2021/07/16 05:15:04;;;;;;;21.25;6.05;;;;;;;16.03;81.43;102051.44;5072819;28;20106;-55
2021/07/16 05:17:31;;;;;;;16.65;5.45;;;;;;;16.01;81.77;102050.91;5064462;28;20533;-54
2021/07/16 05:19:59;;;;;;;20.77;6.00;;;;;;;16.06;81.65;102058.31;5073102;28;20036;-53
2021/07/16 05:22:27;;;;;;;21.75;5.82;;;;;;;16.05;80.08;102063.00;5072587;28;20047;-54
2021/07/16 05:24:54;;;;;;;27.02;5.60;;;;;;;16.01;79.74;102069.31;5072921;28;20569;-54
2021/07/16 05:27:22;;;;;;;20.63;5.38;;;;;;;15.98;80.81;102066.00;5053769;28;20091;-54
2021/07/16 05:29:50;;;;;;;22.17;5.90;;;;;;;16.01;81.37;102072.88;5064370;28;20041;-54
2021/07/16 05:32:17;;;;;;;19.23;6.25;;;;;;;16.04;81.63;102069.59;5072083;28;20049;-56
2021/07/16 05:34:45;;;;;;;23.63;6.15;;;;;;;16.01;80.05;102070.13;5072780;28;20045;-54
2021/07/16 05:37:12;;;;;;;18.48;5.75;;;;;;;16.00;80.53;102071.25;5051963;28;20495;-56
2021/07/16 05:39:46;;;;;;;21.38;5.97;;;;;;;15.92;80.71;102078.13;5072267;28;20082;-52
2021/07/16 05:42:13;;;;;;;20.42;6.03;;;;;;;15.96;80.99;102078.38;5072252;28;20110;-51
2021/07/16 05:44:41;;;;;;;18.60;4.72;;;;;;;15.98;80.75;102087.19;5072299;28;20416;-56
2021/07/16 05:47:09;;;;;;;16.48;5.13;;;;;;;16.04;81.29;102085.25;5072050;28;20049;-55
2021/07/16 05:49:36;;;;;;;21.85;5.72;;;;;;;16.06;81.00;102078.38;5072219;28;20498;-59
2021/07/16 05:52:04;;;;;;;17.73;5.28;;;;;;;16.07;80.35;102082.81;5073710;28;20509;-59
2021/07/16 05:54:31;;;;;;;18.45;5.45;;;;;;;16.06;80.99;102081.13;5073939;28;20048;-60
2021/07/16 05:56:59;;;;;;;19.23;5.47;;;;;;;16.10;81.17;102079.50;5073696;28;20514;-59
2021/07/16 05:59:26;;;;;;;126.25;9.00;;;;;;;16.13;81.05;102084.44;5055346;28;20044;-59
2021/07/16 06:01:54;;;;;;;22.00;6.22;;;;;;;16.15;81.22;102093.25;5071802;28;20044;-58
2021/07/16 06:04:22;;;;;;;17.48;5.22;;;;;;;16.19;81.21;102096.28;5072605;28;20078;-53
2021/07/16 06:06:50;;;;;;;18.48;5.00;;;;;;;16.22;80.74;102084.72;5072089;28;20491;-56
2021/07/16 06:09:18;;;;;;;21.05;6.68;;;;;;;16.22;80.44;102094.91;5072117;28;20051;-59
2021/07/16 06:11:45;;;;;;;17.85;5.68;;;;;;;16.23;81.07;102093.78;5071967;28;20075;-55
2021/07/16 06:14:13;;;;;;;22.88;6.18;;;;;;;16.25;81.34;102097.09;5071742;28;20499;-55
2021/07/16 06:16:41;;;;;;;19.20;5.55;;;;;;;16.26;81.02;102098.72;5071837;28;20041;-53
2021/07/16 06:19:08;;;;;;;17.70;5.43;;;;;;;16.25;80.99;102097.09;5072130;28;20047;-55
2021/07/16 06:21:36;;;;;;;17.92;6.00;;;;;;;16.27;81.17;102101.22;5050765;28;20503;-56
2021/07/16 06:24:04;;;;;;;17.70;5.40;;;;;;;16.29;81.35;102096.28;5068444;28;20044;-57
2021/07/16 06:26:31;;;;;;;20.00;5.80;;;;;;;16.28;81.51;102108.34;5072070;28;20044;-59
2021/07/16 06:28:59;;;;;;;19.75;5.35;;;;;;;16.28;81.94;102096.53;5071771;28;20115;-55
2021/07/16 06:31:26;;;;;;;23.65;7.25;;;;;;;16.30;82.19;102099.84;5071622;28;20123;-58
2021/07/16 06:33:54;;;;;;;20.20;6.50;;;;;;;16.31;82.34;102107.84;5071728;28;20048;-57
2021/07/16 06:36:22;;;;;;;21.35;6.30;;;;;;;16.30;82.41;102094.34;5071703;28;20066;-57
2021/07/16 06:38:49;;;;;;;22.08;6.50;;;;;;;16.26;81.81;102098.72;5072169;28;20127;-55
2021/07/16 06:41:18;;;;;;;14.85;5.03;;;;;;;16.27;81.96;102095.72;5071858;28;20407;-58
2021/07/16 06:43:45;;;;;;;21.60;6.78;;;;;;;16.30;82.02;102091.59;5071823;28;20044;-55
2021/07/16 06:46:13;;;;;;;18.15;5.20;;;;;;;16.31;82.18;102099.59;5071284;28;20062;-55
2021/07/16 06:48:44;;;;;;;13.88;5.55;;;;;;;16.32;82.08;102098.47;5074676;28;20056;-58
2021/07/16 06:51:12;;;;;;;21.48;5.80;;;;;;;16.25;80.68;102105.34;5075640;28;20048;-56
2021/07/16 06:53:40;;;;;;;19.48;5.53;;;;;;;16.19;80.92;102110.84;5054909;28;20041;-58
2021/07/16 06:56:07;;;;;;;20.30;5.22;;;;;;;16.14;81.20;102108.09;5072990;28;20055;-58
2021/07/16 06:58:35;;;;;;;17.90;5.45;;;;;;;16.15;81.60;102115.25;5075220;28;20047;-52
2021/07/16 07:01:02;;;;;;;18.52;5.15;;;;;;;16.18;81.52;102122.13;5075467;28;20059;-57
2021/07/16 07:03:30;;;;;;;15.85;4.95;;;;;;;16.22;81.29;102119.66;5075501;28;20045;-59
2021/07/16 07:05:59;;;;;;;20.80;5.47;;;;;;;16.24;80.65;102118.28;5075491;28;20124;-52
2021/07/16 07:08:27;;;;;;;20.98;5.10;;;;;;;16.27;80.88;102122.41;5075740;28;20072;-52
2021/07/16 07:10:54;;;;;;;20.70;5.63;;;;;;;16.26;80.36;102115.25;5075119;28;20040;-56
2021/07/16 07:13:22;;;;;;;24.67;5.38;;;;;;;16.22;79.59;102111.41;5075182;28;20072;-51
2021/07/16 07:15:50;;;;;;;28.83;6.18;;;;;;;16.19;80.09;102113.59;5074962;28;20491;-54
2021/07/16 07:18:17;;;;;;;19.85;5.72;;;;;;;16.19;80.29;102110.84;5075290;28;20041;-57
2021/07/16 07:20:45;;;;;;;17.63;5.25;;;;;;;16.20;80.26;102114.41;5074655;28;20064;-58
2021/07/16 07:23:13;;;;;;;20.63;5.18;;;;;;;16.21;80.51;102123.50;5075033;28;20517;-58
2021/07/16 07:25:40;;;;;;;19.45;5.07;;;;;;;16.20;80.43;102133.66;5075225;28;20040;-58
2021/07/16 07:28:08;;;;;;;19.38;5.43;;;;;;;16.17;80.08;102134.22;5074590;28;20056;-55
2021/07/16 07:30:36;;;;;;;26.60;6.38;;;;;;;16.19;80.37;102124.59;5075235;28;20040;-56
2021/07/16 07:33:04;;;;;;;20.25;6.10;;;;;;;16.23;80.71;102122.13;5075069;28;20434;-55
2021/07/16 07:35:33;;;;;;;32.88;6.40;;;;;;;16.26;80.42;102132.59;5075086;28;20049;-57
2021/07/16 07:38:02;;;;;;;26.90;5.28;;;;;;;16.28;80.42;102132.28;5075072;28;20064;-57
2021/07/16 07:40:31;;;;;;;22.25;5.78;;;;;;;16.25;80.23;102136.41;5066741;28;20131;-54
2021/07/16 07:43:01;;;;;;;17.90;5.18;;;;;;;16.27;80.17;102138.91;5052805;28;20041;-58
2021/07/16 07:45:29;;;;;;;18.77;4.65;;;;;;;16.29;80.03;102142.22;5074640;28;20127;-59
2021/07/16 07:47:57;;;;;;;19.40;5.30;;;;;;;16.29;80.09;102137.53;5074775;28;20039;-59
2021/07/16 07:50:25;;;;;;;22.50;5.35;;;;;;;16.32;80.56;102138.91;5074950;28;20035;-58
2021/07/16 07:52:53;;;;;;;19.65;4.53;;;;;;;16.30;79.93;102139.16;5074841;28;20068;-59
2021/07/16 07:55:25;;;;;;;20.17;5.22;;;;;;;16.36;80.45;102146.34;5074762;28;20070;-58
2021/07/16 07:57:54;;;;;;;24.92;5.63;;;;;;;16.39;79.64;102145.78;5074243;28;20041;-59
2021/07/16 08:00:25;;;;;;;24.48;5.63;;;;;;;16.37;79.03;102149.91;5074359;28;20040;-60
2021/07/16 08:02:53;;;;;;;21.95;5.25;;;;;;;16.35;79.42;102155.66;5074668;28;20051;-59
2021/07/16 08:05:22;;;;;;;19.20;5.20;;;;;;;16.35;79.92;102160.34;5074412;28;20044;-58
2021/07/16 08:07:50;;;;;;;23.60;5.57;;;;;;;16.32;79.69;102158.16;5074511;28;20098;-54
2021/07/16 08:10:19;;;;;;;24.88;5.55;;;;;;;16.33;79.42;102159.78;5074295;28;20049;-60
2021/07/16 08:12:47;;;;;;;23.58;5.82;;;;;;;16.33;79.26;102165.31;5073650;28;20045;-60
2021/07/16 08:15:16;;;;;;;24.85;5.25;;;;;;;16.33;79.75;102162.53;5074062;28;20040;-55
2021/07/16 08:17:44;;;;;;;24.40;6.20;;;;;;;16.32;79.56;102158.16;5074002;28;20060;-58
2021/07/16 08:20:12;;;;;;;22.92;5.43;;;;;;;16.30;79.84;102168.59;5053940;28;20131;-54
2021/07/16 08:22:41;;;;;;;23.00;5.50;;;;;;;16.24;79.46;102161.47;5073779;28;20045;-55
2021/07/16 08:25:10;;;;;;;25.33;5.97;;;;;;;16.25;79.46;102168.59;5073854;28;20074;-52
2021/07/16 08:27:38;;;;;;;24.38;5.68;;;;;;;16.26;79.63;102164.75;5073688;28;20052;-53
2021/07/16 08:30:07;;;;;;;22.10;5.60;;;;;;;16.24;79.80;102155.97;5074278;28;20033;-56
2021/07/16 08:32:35;;;;;;;22.00;5.40;;;;;;;16.24;80.25;102161.47;5052490;28;20045;-55
2021/07/16 08:35:05;;;;;;;27.95;6.18;;;;;;;16.27;80.31;102171.91;5052625;28;20052;-53
2021/07/16 08:37:34;;;;;;;25.42;5.90;;;;;;;16.27;80.06;102177.41;5073826;28;20107;-58
2021/07/16 08:40:03;;;;;;;23.60;5.47;;;;;;;16.27;80.12;102174.66;5073465;28;20036;-59
2021/07/16 08:42:31;;;;;;;22.40;5.53;;;;;;;16.30;80.66;102176.84;5065280;28;20045;-61
2021/07/16 08:45:00;;;;;;;22.90;5.70;;;;;;;16.33;80.30;102177.16;5073340;28;20051;-58
2021/07/16 08:47:28;;;;;;;24.58;5.78;;;;;;;16.36;80.12;102178.53;5073552;28;20483;-59
2021/07/16 08:49:56;;;;;;;23.95;5.78;;;;;;;16.36;79.59;102178.53;5052276;28;20522;-58
2021/07/16 08:52:26;;;;;;;26.83;6.05;;;;;;;16.34;80.12;102177.97;5073035;28;20036;-57
2021/07/16 08:54:55;;;;;;;28.33;5.90;;;;;;;16.33;79.41;102184.56;5073143;28;20048;-59
2021/07/16 08:57:25;;;;;;;26.58;5.50;;;;;;;16.33;79.80;102179.06;5073054;28;20047;-58
2021/07/16 08:59:53;;;;;;;23.25;5.13;;;;;;;16.35;79.77;102190.59;5073583;28;20135;-58
2021/07/16 09:02:25;;;;;;;22.85;5.53;;;;;;;16.36;79.77;102181.28;5073093;28;20033;-58
2021/07/16 09:05:08;;;;;;;26.70;6.07;;;;;;;16.36;79.99;102173.84;5073253;28;20063;-64
2021/07/16 09:07:48;;;;;;;24.90;5.82;;;;;;;16.40;80.21;102176.84;5073344;28;20402;-58
2021/07/16 09:10:21;;;;;;;26.05;5.68;;;;;;;16.43;80.08;102187.34;5072139;28;20067;-58
2021/07/16 09:13:00;;;;;;;27.35;5.68;;;;;;;16.45;79.89;102179.63;5059649;28;20043;-59
2021/07/16 09:15:29;;;;;;;25.45;5.75;;;;;;;16.48;79.67;102186.50;5072863;28;20051;-58
2021/07/16 09:18:12;;;;;;;19.52;5.07;;;;;;;16.51;79.96;102188.72;5072820;28;20510;-58
2021/07/16 09:20:40;;;;;;;24.42;6.18;;;;;;;16.49;79.25;102191.72;5072836;28;20506;-59
2021/07/16 09:23:18;;;;;;;23.83;5.55;;;;;;;16.51;79.81;102199.72;5072718;28;20055;-55
2021/07/16 09:26:03;;;;;;;25.45;5.78;;;;;;;16.49;79.37;102205.47;5072724;28;20036;-57
2021/07/16 09:28:31;;;;;;;24.48;6.03;;;;;;;16.49;78.85;102210.97;5064810;28;20059;-55
2021/07/16 09:31:17;;;;;;;24.02;6.10;;;;;;;16.49;79.05;102212.91;5072494;28;20411;-58
2021/07/16 09:33:49;;;;;;;;;;;;;;;16.45;78.30;102218.16;5051894;28;20044;-58
2021/07/16 09:36:24;;;;;;;27.63;6.07;;;;;;;16.47;78.95;102215.09;5070652;28;19927;-55
2021/07/16 09:39:05;;;;;;;29.83;6.65;;;;;;;16.51;79.63;102214.28;5072477;28;20493;-55
2021/07/16 09:41:33;;;;;;;23.33;6.20;;;;;;;16.66;79.46;102212.66;5072467;28;20048;-55
2021/07/16 09:44:03;;;;;;;25.30;5.88;;;;;;;16.70;78.26;102209.06;5072454;28;20051;-56
2021/07/16 09:46:31;;;;;;;24.55;7.25;;;;;;;16.75;79.04;102208.25;5072434;28;20894;-55
2021/07/16 09:49:12;;;;;;;21.20;5.82;;;;;;;16.74;78.45;102201.94;5072735;28;20114;-57
2021/07/16 09:51:43;;;;;;;31.48;6.90;;;;;;;16.73;78.92;102202.19;5072262;28;20116;-55
2021/07/16 09:54:14;;;;;;;30.33;7.22;;;;;;;16.71;78.24;102201.63;5072203;28;20060;-58
2021/07/16 09:56:41;;;;;;;23.80;6.35;;;;;;;16.72;78.20;102206.06;5072302;28;20051;-58
2021/07/16 09:59:11;;;;;;;28.20;6.40;;;;;;;16.70;78.81;102203.56;5072426;28;20383;-56
2021/07/16 10:01:41;;;;;;;29.35;6.45;;;;;;;16.63;78.80;102213.22;5072474;28;20119;-60
2021/07/16 10:04:18;;;;;;;26.90;6.97;;;;;;;16.62;78.25;102212.38;5071960;28;20043;-56
2021/07/16 10:06:53;;;;;;;30.75;7.22;;;;;;;16.67;78.80;102217.03;5034557;28;20045;-57
2021/07/16 10:09:23;;;;;;;31.35;7.10;;;;;;;16.69;78.63;102217.59;5070898;28;20037;-59
2021/07/16 10:11:57;;;;;;;31.65;7.95;;;;;;;16.68;78.20;102226.97;5071841;28;20072;-57
2021/07/16 10:14:25;;;;;;;31.38;6.90;;;;;;;16.58;78.38;102217.59;5071696;28;20499;-58
2021/07/16 10:16:54;;;;;;;30.63;7.65;;;;;;;16.59;78.80;102219.25;5071968;28;20045;-55
2021/07/16 10:19:22;;;;;;;33.03;7.25;;;;;;;16.56;78.93;102213.47;5071905;28;20549;-54
2021/07/16 10:21:51;;;;;;;29.98;7.03;;;;;;;16.52;79.11;102221.44;5072094;28;20120;-55
2021/07/16 10:24:26;;;;;;;27.50;6.60;;;;;;;16.52;79.05;102218.69;5071986;28;20051;-59
2021/07/16 10:27:10;;;;;;;29.58;7.55;;;;;;;16.54;78.85;102222.00;5051473;28;20415;-58
2021/07/16 10:29:45;;;;;;;25.20;6.35;;;;;;;16.55;79.57;102229.16;5072048;28;20040;-58
2021/07/16 10:32:40;;;;;;;32.83;7.18;;;;;;;16.55;79.41;102231.91;5072032;28;20063;-57
2021/07/16 10:35:24;;;;;;;28.23;6.60;;;;;;;16.56;80.80;102236.31;5071884;28;20046;-57
2021/07/16 10:37:53;;;;;;;27.08;7.05;;;;;;;16.57;81.22;102243.47;5071648;28;20048;-56
2021/07/16 10:40:36;;;;;;;26.98;6.80;;;;;;;16.57;82.02;102235.22;5072076;28;20037;-61
2021/07/16 10:43:05;;;;;;;25.25;6.00;;;;;;;16.55;82.04;102248.44;5071672;28;20060;-60
2021/07/16 10:45:36;;;;;;;29.33;6.13;;;;;;;16.57;82.91;102260.00;5071868;28;20442;-60
2021/07/16 10:48:12;;;;;;;21.65;6.22;;;;;;;16.57;82.64;102271.00;5071911;28;20044;-61
2021/07/16 10:50:40;;;;;;;32.47;7.38;;;;;;;16.55;82.48;102264.94;5071779;28;20049;-59
2021/07/16 10:53:14;;;;;;;24.30;6.63;;;;;;;16.57;82.92;102265.50;4370260;28;10000390;-60
2021/07/16 10:55:41;;;;;;;24.38;7.50;;;;;;;16.56;83.83;102266.56;5069580;28;20048;-60
2021/07/16 10:58:28;;;;;;;24.80;7.38;;;;;;;16.56;83.82;102274.00;5048977;28;20044;-61
2021/07/16 11:01:01;;;;;;;29.23;7.20;;;;;;;16.52;83.01;102268.22;5069717;28;20044;-59
2021/07/16 11:03:40;;;;;;;32.92;7.57;;;;;;;16.52;83.39;102272.88;5069644;28;20407;-60
2021/07/16 11:06:12;;;;;;;31.75;7.40;;;;;;;16.59;83.38;102257.75;5055779;28;20111;-60
2021/07/16 11:08:40;;;;;;;25.63;6.75;;;;;;;16.69;83.48;102247.88;5069559;28;20043;-61
2021/07/16 11:11:09;;;;;;;32.45;7.25;;;;;;;16.74;82.78;102245.13;5069245;28;20067;-58
2021/07/16 11:13:44;;;;;;;30.92;6.43;;;;;;;16.85;83.20;102241.31;5069551;28;20056;-58
2021/07/16 11:16:25;;;;;;;26.45;6.88;;;;;;;16.93;82.87;102235.25;5069286;28;20127;-54
2021/07/16 11:19:15;;;;;;;39.75;8.88;;;;;;;17.02;82.01;102241.84;5071269;28;20556;-58
2021/07/16 11:21:46;;;;;;;29.65;6.40;;;;;;;17.12;81.81;102242.94;5071530;28;20403;-54
2021/07/16 11:24:20;;;;;;;25.60;7.07;;;;;;;17.07;80.50;102251.19;5071137;28;20052;-58
2021/07/16 11:26:47;;;;;;;24.70;6.78;;;;;;;17.09;81.06;102249.00;5071647;28;20056;-54